createdAt,value
2023-06-20T00:01:00.588Z,94.30
2023-06-20T00:03:27.361Z,94.60
2023-06-20T00:05:54.084Z,94.70
2023-06-20T00:08:20.792Z,95.10
2023-06-20T00:10:47.855Z,95.00
2023-06-20T00:13:14.596Z,94.80
2023-06-20T00:15:42.596Z,93.80
2023-06-20T00:18:09.565Z,94.20
2023-06-20T00:20:39.608Z,94.00
2023-06-20T00:23:07.925Z,94.70
2023-06-20T00:25:34.786Z,94.00
2023-06-20T00:28:03.437Z,94.40
2023-06-20T00:30:30.362Z,94.70
2023-06-20T00:32:59.790Z,95.00
2023-06-20T00:35:27.296Z,95.60
2023-06-20T00:37:54.560Z,95.40
2023-06-20T00:40:21.279Z,95.10
2023-06-20T00:42:48.388Z,94.80
2023-06-20T00:45:35.203Z,94.80
2023-06-20T00:48:04.827Z,94.30
2023-06-20T00:50:32.750Z,94.90
2023-06-20T00:53:06.606Z,95.30
2023-06-20T00:55:35.311Z,94.40
2023-06-20T00:58:04.178Z,95.00
2023-06-20T01:00:33.825Z,95.20
2023-06-20T01:03:13.198Z,95.30
2023-06-20T01:05:42.175Z,95.00
2023-06-20T01:08:16.306Z,94.90
2023-06-20T01:10:56.703Z,94.50
2023-06-20T01:13:23.556Z,94.50
2023-06-20T01:16:11.573Z,95.10
2023-06-20T01:18:45.266Z,95.30
2023-06-20T01:21:18.324Z,94.80
2023-06-20T01:23:55.573Z,95.50
2023-06-20T01:26:36.714Z,94.60
2023-06-20T01:29:29.138Z,95.30
2023-06-20T01:31:58.724Z,95.00
2023-06-20T01:34:29.387Z,95.90
2023-06-20T01:36:59.219Z,94.80
2023-06-20T01:39:31.142Z,95.10
2023-06-20T01:42:02.375Z,95.00
2023-06-20T01:44:34.155Z,94.80
2023-06-20T01:47:03.290Z,94.90
2023-06-20T01:49:31.266Z,95.00
2023-06-20T01:51:58.996Z,94.50
2023-06-20T01:54:28.871Z,94.40
2023-06-20T01:57:00.530Z,94.60
2023-06-20T01:59:28.695Z,95.60
2023-06-20T02:01:57.854Z,94.70
2023-06-20T02:04:26.746Z,94.40
2023-06-20T02:06:54.318Z,95.10
2023-06-20T02:09:21.578Z,95.80
2023-06-20T02:11:49.548Z,96.00
2023-06-20T02:14:17.036Z,95.80
2023-06-20T02:16:46.330Z,95.50
2023-06-20T02:19:13.058Z,95.00
2023-06-20T02:21:43.107Z,95.60
2023-06-20T02:24:15.225Z,95.50
2023-06-20T02:26:45.007Z,95.40
2023-06-20T02:29:13.464Z,96.30
2023-06-20T02:31:44.678Z,95.60
2023-06-20T02:34:15.300Z,95.60
2023-06-20T02:36:44.595Z,96.10
2023-06-20T02:39:11.993Z,96.10
2023-06-20T02:41:43.000Z,95.50
2023-06-20T02:44:10.180Z,95.20
2023-06-20T02:47:02.492Z,95.00
2023-06-20T02:49:53.969Z,95.00
2023-06-20T02:52:29.874Z,94.90
2023-06-20T02:55:18.964Z,95.30
2023-06-20T02:57:52.731Z,95.50
2023-06-20T03:00:20.866Z,95.40
2023-06-20T03:03:05.780Z,95.40
2023-06-20T03:05:37.161Z,95.20
2023-06-20T03:08:05.273Z,95.40
2023-06-20T03:10:33.209Z,95.40
2023-06-20T03:13:00.557Z,95.40
2023-06-20T03:15:28.562Z,95.60
2023-06-20T03:17:55.546Z,95.30
2023-06-20T03:20:22.379Z,95.10
2023-06-20T03:22:49.134Z,96.20
2023-06-20T03:25:15.931Z,96.10
2023-06-20T03:27:42.872Z,95.10
2023-06-20T03:30:10.256Z,94.50
2023-06-20T03:32:37.084Z,96.30
2023-06-20T03:35:05.368Z,94.60
2023-06-20T03:37:32.051Z,94.60
2023-06-20T03:39:58.721Z,94.90
2023-06-20T03:42:25.587Z,95.20
2023-06-20T03:44:52.424Z,95.40
2023-06-20T03:47:19.579Z,95.00
2023-06-20T03:49:46.335Z,96.70
2023-06-20T03:52:13.168Z,96.60
2023-06-20T03:54:40.578Z,94.90
2023-06-20T03:57:07.559Z,94.90
2023-06-20T03:59:34.379Z,95.00
2023-06-20T04:02:01.093Z,95.10
2023-06-20T04:04:27.842Z,95.40
2023-06-20T04:06:54.512Z,96.50
2023-06-20T04:09:21.368Z,95.20
2023-06-20T04:11:48.154Z,95.70
2023-06-20T04:14:14.893Z,95.30
2023-06-20T04:16:41.630Z,95.40
2023-06-20T04:19:08.498Z,95.10
2023-06-20T04:21:35.297Z,95.10
2023-06-20T04:24:02.196Z,95.40
2023-06-20T04:26:30.530Z,95.70
2023-06-20T04:29:00.394Z,95.60
2023-06-20T04:31:27.082Z,96.10
2023-06-20T04:33:55.810Z,95.50
2023-06-20T04:36:22.521Z,95.80
2023-06-20T04:38:49.280Z,96.10
2023-06-20T04:41:16.273Z,96.10
2023-06-20T04:43:45.989Z,95.80
2023-06-20T04:46:16.581Z,96.30
2023-06-20T04:48:43.846Z,96.30
2023-06-20T04:51:11.309Z,96.30
2023-06-20T04:53:38.567Z,96.40
2023-06-20T04:56:06.407Z,96.60
2023-06-20T04:58:33.139Z,96.60
2023-06-20T05:01:00.842Z,95.90
2023-06-20T05:03:28.370Z,96.30
2023-06-20T05:05:55.323Z,96.40
2023-06-20T05:08:22.262Z,96.90
2023-06-20T05:10:49.110Z,96.10
2023-06-20T05:13:15.987Z,96.10
2023-06-20T05:15:42.799Z,96.20
2023-06-20T05:18:09.668Z,95.80
2023-06-20T05:20:36.487Z,96.00
2023-06-20T05:23:03.415Z,95.50
2023-06-20T05:25:31.090Z,95.50
2023-06-20T05:27:58.018Z,95.60
2023-06-20T05:30:25.123Z,95.50
2023-06-20T05:32:53.307Z,95.30
2023-06-20T05:35:20.451Z,96.10
2023-06-20T05:37:50.573Z,95.90
2023-06-20T05:40:17.730Z,95.90
2023-06-20T05:42:44.557Z,95.70
2023-06-20T05:45:11.617Z,94.60
2023-06-20T05:47:38.499Z,95.20
2023-06-20T05:50:05.993Z,95.20
2023-06-20T05:52:32.911Z,95.50
2023-06-20T05:55:00.046Z,96.20
2023-06-20T05:57:27.252Z,95.70
2023-06-20T05:59:54.080Z,95.60
2023-06-20T06:02:23.624Z,96.00
2023-06-20T06:04:51.569Z,96.30
2023-06-20T06:07:18.774Z,96.00
2023-06-20T06:09:47.801Z,96.10
2023-06-20T06:12:14.894Z,94.50
2023-06-20T06:14:42.372Z,95.00
2023-06-20T06:17:09.297Z,95.20
2023-06-20T06:19:36.503Z,94.30
2023-06-20T06:22:04.067Z,94.20
2023-06-20T06:24:31.167Z,94.40
2023-06-20T06:26:57.973Z,93.30
2023-06-20T06:29:26.746Z,93.60
2023-06-20T06:31:54.347Z,93.20
2023-06-20T06:34:21.061Z,93.10
2023-06-20T06:36:50.603Z,93.30
2023-06-20T06:39:19.020Z,93.00
2023-06-20T06:41:52.911Z,92.60
2023-06-20T06:44:20.056Z,92.60
2023-06-20T06:46:46.954Z,92.10
2023-06-20T06:49:13.813Z,92.30
2023-06-20T06:51:41.391Z,92.20
2023-06-20T06:54:14.214Z,92.00
2023-06-20T06:56:40.934Z,92.10
2023-06-20T06:59:08.446Z,93.00
2023-06-20T07:01:36.326Z,92.60
2023-06-20T07:04:03.227Z,91.70
2023-06-20T07:06:30.680Z,91.70
2023-06-20T07:08:57.433Z,92.00
2023-06-20T07:11:25.588Z,92.10
2023-06-20T07:13:52.336Z,92.10
2023-06-20T07:16:19.135Z,92.20
2023-06-20T07:18:45.920Z,92.10
2023-06-20T07:21:12.711Z,91.90
2023-06-20T07:23:39.597Z,91.70
2023-06-20T07:26:09.588Z,92.30
2023-06-20T07:28:37.326Z,91.70
2023-06-20T07:31:04.160Z,91.90
2023-06-20T07:33:30.893Z,92.40
2023-06-20T07:36:01.612Z,92.10
2023-06-20T07:38:28.320Z,92.30
2023-06-20T07:40:55.261Z,93.10
2023-06-20T07:43:28.262Z,92.10
2023-06-20T07:45:55.384Z,92.00
2023-06-20T07:48:26.101Z,91.50
2023-06-20T07:50:52.905Z,91.50
2023-06-20T07:53:19.998Z,91.70
2023-06-20T07:55:46.689Z,91.60
2023-06-20T07:58:13.402Z,91.40
2023-06-20T08:00:41.808Z,90.90
2023-06-20T08:03:08.792Z,90.90
2023-06-20T08:05:35.601Z,90.60
2023-06-20T08:08:02.345Z,91.40
2023-06-20T08:10:29.107Z,90.90
2023-06-20T08:12:55.868Z,90.50
2023-06-20T08:15:23.092Z,91.00
2023-06-20T08:17:50.077Z,90.60
2023-06-20T08:20:16.966Z,90.70
2023-06-20T08:22:43.727Z,90.40
2023-06-20T08:25:11.594Z,90.80
2023-06-20T08:27:38.384Z,90.60
2023-06-20T08:30:05.784Z,91.00
2023-06-20T08:32:32.564Z,90.20
2023-06-20T08:34:59.437Z,90.10
2023-06-20T08:37:27.332Z,90.60
2023-06-20T08:39:54.284Z,90.40
2023-06-20T08:42:21.029Z,90.60
2023-06-20T08:44:57.564Z,89.00
2023-06-20T08:47:25.534Z,90.10
2023-06-20T08:49:52.716Z,90.20
2023-06-20T08:52:29.635Z,90.30
2023-06-20T08:54:58.774Z,90.20
2023-06-20T08:57:26.859Z,91.00
2023-06-20T08:59:55.845Z,90.00
2023-06-20T09:02:23.217Z,90.00
2023-06-20T09:05:06.549Z,89.50
2023-06-20T09:07:38.997Z,89.00
2023-06-20T09:10:07.446Z,90.00
2023-06-20T09:12:47.349Z,90.20
2023-06-20T09:15:19.668Z,90.30
2023-06-20T09:17:53.958Z,89.20
2023-06-20T09:20:21.639Z,89.30
2023-06-20T09:22:48.492Z,89.60
2023-06-20T09:25:21.551Z,90.10
2023-06-20T09:27:49.001Z,88.30
2023-06-20T09:30:15.917Z,87.30
2023-06-20T09:32:43.288Z,89.60
2023-06-20T09:35:11.811Z,88.70
2023-06-20T09:37:48.484Z,88.80
2023-06-20T09:40:21.127Z,88.60
2023-06-20T09:42:48.755Z,86.80
2023-06-20T09:45:17.881Z,87.20
2023-06-20T09:47:46.106Z,86.40
2023-06-20T09:50:17.211Z,85.80
2023-06-20T09:52:48.457Z,83.80
2023-06-20T09:55:16.794Z,86.90
2023-06-20T09:57:48.387Z,85.80
2023-06-20T10:00:16.364Z,85.70
2023-06-20T10:02:50.245Z,85.50
2023-06-20T10:05:22.105Z,87.60
2023-06-20T10:07:50.507Z,86.10
2023-06-20T10:10:18.731Z,86.50
2023-06-20T10:12:47.358Z,85.70
2023-06-20T10:15:15.932Z,86.50
2023-06-20T10:17:44.380Z,86.50
2023-06-20T10:20:32.969Z,87.70
2023-06-20T10:23:05.947Z,87.80
2023-06-20T10:25:34.051Z,87.10
2023-06-20T10:28:06.699Z,85.80
2023-06-20T10:30:51.499Z,86.50
2023-06-20T10:33:38.133Z,86.00
2023-06-20T10:36:09.933Z,86.50
2023-06-20T10:38:45.755Z,86.20
2023-06-20T10:41:26.200Z,88.10
2023-06-20T10:43:57.089Z,87.70
2023-06-20T10:46:29.734Z,85.70
2023-06-20T10:48:56.645Z,88.80
2023-06-20T10:51:23.591Z,87.40
2023-06-20T10:53:50.346Z,86.20
2023-06-20T10:56:27.418Z,88.00
2023-06-20T10:58:54.405Z,86.70
2023-06-20T11:01:26.042Z,87.50
2023-06-20T11:03:53.575Z,87.80
2023-06-20T11:06:20.394Z,87.50
2023-06-20T11:08:47.270Z,86.40
2023-06-20T11:11:14.098Z,86.90
2023-06-20T11:13:44.136Z,87.20
2023-06-20T11:16:20.364Z,86.40
2023-06-20T11:18:47.588Z,88.60
2023-06-20T11:21:17.092Z,86.70
2023-06-20T11:23:43.971Z,87.20
2023-06-20T11:26:10.890Z,85.60
2023-06-20T11:28:39.156Z,86.10
2023-06-20T11:31:11.473Z,86.30
2023-06-20T11:33:39.128Z,86.40
2023-06-20T11:36:06.699Z,85.40
2023-06-20T11:38:36.742Z,85.50
2023-06-20T11:41:07.419Z,85.50
2023-06-20T11:43:42.097Z,86.40
2023-06-20T11:46:10.100Z,86.10
2023-06-20T11:48:37.041Z,86.10
2023-06-20T11:51:06.931Z,85.10
2023-06-20T11:53:36.277Z,86.70
2023-06-20T11:58:43.577Z,86.30
2023-06-20T12:01:22.276Z,87.70
2023-06-20T12:04:11.061Z,85.70
2023-06-20T12:06:40.637Z,84.80
2023-06-20T12:09:15.144Z,85.70
2023-06-20T12:11:48.489Z,85.80
2023-06-20T12:14:16.181Z,85.70
2023-06-20T12:16:43.616Z,86.20
2023-06-20T12:19:10.580Z,84.70
2023-06-20T12:21:41.057Z,86.10
2023-06-20T12:24:08.777Z,86.20
2023-06-20T12:26:37.143Z,85.40
2023-06-20T12:29:04.600Z,85.10
2023-06-20T12:31:32.759Z,85.10
2023-06-20T12:33:59.588Z,85.50
2023-06-20T12:36:28.533Z,85.30
2023-06-20T12:38:55.306Z,85.40
2023-06-20T12:41:22.193Z,84.80
2023-06-20T12:43:49.107Z,85.20
2023-06-20T12:46:16.005Z,84.00
2023-06-20T12:48:42.895Z,84.60
2023-06-20T12:51:09.613Z,82.80
2023-06-20T12:53:36.582Z,83.20
2023-06-20T12:56:03.740Z,83.60
2023-06-20T12:58:33.601Z,84.10
2023-06-20T13:01:00.993Z,82.20
2023-06-20T13:03:28.134Z,82.20
2023-06-20T13:05:55.136Z,80.60
2023-06-20T13:08:21.930Z,81.30
2023-06-20T13:10:48.673Z,81.50
2023-06-20T13:13:15.405Z,82.10
2023-06-20T13:15:42.279Z,82.40
2023-06-20T13:18:10.433Z,82.70
2023-06-20T13:20:37.548Z,82.00
2023-06-20T13:23:04.387Z,82.30
2023-06-20T13:25:32.241Z,81.60
2023-06-20T13:27:59.137Z,80.10
2023-06-20T13:30:26.366Z,81.30
2023-06-20T13:32:53.527Z,79.90
2023-06-20T13:35:22.870Z,80.30
2023-06-20T13:37:51.077Z,81.00
2023-06-20T13:40:18.229Z,79.80
2023-06-20T13:42:49.461Z,79.90
2023-06-20T13:45:18.698Z,80.20
2023-06-20T13:47:46.455Z,80.60
2023-06-20T13:50:15.265Z,80.70
2023-06-20T13:52:42.514Z,81.20
2023-06-20T13:55:11.659Z,80.30
2023-06-20T13:57:38.447Z,80.30
2023-06-20T14:00:12.417Z,80.80
2023-06-20T14:02:42.697Z,80.50
2023-06-20T14:05:11.247Z,78.60
2023-06-20T14:07:38.118Z,80.40
2023-06-20T14:10:05.681Z,80.70
2023-06-20T14:12:32.512Z,79.80
2023-06-20T14:15:00.008Z,78.60
2023-06-20T14:17:27.903Z,78.40
2023-06-20T14:19:54.752Z,77.60
2023-06-20T14:22:21.566Z,79.70
2023-06-20T14:24:48.399Z,77.90
2023-06-20T14:27:15.266Z,77.80
2023-06-20T14:29:42.119Z,79.40
2023-06-20T14:32:08.944Z,79.50
2023-06-20T14:34:35.664Z,79.40
2023-06-20T14:37:02.481Z,78.50
2023-06-20T14:39:29.266Z,79.50
2023-06-20T14:41:55.998Z,77.50
2023-06-20T14:44:25.007Z,78.50
2023-06-20T14:46:53.055Z,78.70
2023-06-20T14:49:20.947Z,79.60
2023-06-20T14:51:49.552Z,78.60
2023-06-20T14:54:18.367Z,79.30
2023-06-20T14:56:50.217Z,79.20
2023-06-20T14:59:17.342Z,80.40
2023-06-20T15:01:44.131Z,77.70
2023-06-20T15:04:12.475Z,78.30
2023-06-20T15:06:40.490Z,77.60
2023-06-20T15:09:07.621Z,77.80
2023-06-20T15:11:35.441Z,77.60
2023-06-20T15:14:02.164Z,77.30
2023-06-20T15:16:29.062Z,79.70
2023-06-20T15:18:56.012Z,79.10
2023-06-20T15:21:22.858Z,81.00
2023-06-20T15:23:49.619Z,83.30
2023-06-20T15:26:16.400Z,82.10
2023-06-20T15:28:45.788Z,84.00
2023-06-20T15:31:15.420Z,84.70
2023-06-20T15:33:42.403Z,83.70
2023-06-20T15:36:09.373Z,92.50
2023-06-20T15:38:36.482Z,92.80
2023-06-20T15:41:06.291Z,93.00
2023-06-20T15:43:36.063Z,90.20
2023-06-20T15:46:03.644Z,85.60
2023-06-20T15:48:30.589Z,88.40
2023-06-20T15:50:57.587Z,92.80
2023-06-20T15:53:25.473Z,90.40
2023-06-20T15:56:00.343Z,87.90
2023-06-20T15:58:28.072Z,95.20
2023-06-20T16:00:54.816Z,92.00
2023-06-20T16:03:21.649Z,95.00
2023-06-20T16:05:48.542Z,91.10
2023-06-20T16:08:15.260Z,92.70
2023-06-20T16:10:41.980Z,93.20
2023-06-20T16:13:08.765Z,93.30
2023-06-20T16:15:35.586Z,91.30
2023-06-20T16:18:02.318Z,93.70
2023-06-20T16:20:30.377Z,96.20
2023-06-20T16:22:57.182Z,95.70
2023-06-20T16:25:23.976Z,94.00
2023-06-20T16:27:52.827Z,94.80
2023-06-20T16:30:20.684Z,92.40
2023-06-20T16:32:48.553Z,95.10
2023-06-20T16:35:15.372Z,96.40
2023-06-20T16:37:42.172Z,94.40
2023-06-20T16:40:09.593Z,94.40
2023-06-20T16:42:36.384Z,94.90
2023-06-20T16:45:03.515Z,91.40
2023-06-20T16:47:30.612Z,90.80
2023-06-20T16:49:57.526Z,90.30
2023-06-20T16:52:24.239Z,90.10
2023-06-20T16:54:52.106Z,91.90
2023-06-20T16:57:19.282Z,95.60
2023-06-20T16:59:46.002Z,95.60
2023-06-20T17:02:14.318Z,98.00
2023-06-20T17:04:41.063Z,99.90
2023-06-20T17:07:07.899Z,98.20
2023-06-20T17:09:35.661Z,94.70
2023-06-20T17:12:02.896Z,93.90
2023-06-20T17:14:29.682Z,92.10
2023-06-20T17:16:58.119Z,91.40
2023-06-20T17:19:25.061Z,90.90
2023-06-20T17:22:02.106Z,92.90
2023-06-20T17:24:37.091Z,91.00
2023-06-20T17:27:03.932Z,90.60
2023-06-20T17:29:30.666Z,90.30
2023-06-20T17:31:59.356Z,94.00
2023-06-20T17:34:26.094Z,91.00
2023-06-20T17:36:53.044Z,90.40
2023-06-20T17:39:22.154Z,92.40
2023-06-20T17:41:49.390Z,97.10
2023-06-20T17:44:16.559Z,96.90
2023-06-20T17:46:55.497Z,94.30
2023-06-20T17:49:23.698Z,92.20
2023-06-20T17:51:50.437Z,91.90
2023-06-20T17:54:17.282Z,91.30
2023-06-20T17:56:44.122Z,93.80
2023-06-20T17:59:10.816Z,97.00
2023-06-20T18:01:37.689Z,93.70
2023-06-20T18:04:04.815Z,95.50
2023-06-20T18:06:31.606Z,96.40
2023-06-20T18:08:58.476Z,93.30
2023-06-20T18:11:25.560Z,93.00
2023-06-20T18:13:52.267Z,92.50
2023-06-20T18:16:19.085Z,93.30
2023-06-20T18:18:47.987Z,92.20
2023-06-20T18:21:14.909Z,91.60
2023-06-20T18:23:41.715Z,91.60
2023-06-20T18:26:08.527Z,91.90
2023-06-20T18:28:36.710Z,91.50
2023-06-20T18:31:03.862Z,91.40
2023-06-20T18:33:30.757Z,91.50
2023-06-20T18:35:57.630Z,91.50
2023-06-20T18:38:24.546Z,91.30
2023-06-20T18:40:51.269Z,91.30
2023-06-20T18:43:18.081Z,91.30
2023-06-20T18:45:44.949Z,91.10
2023-06-20T18:48:11.908Z,91.20
2023-06-20T18:50:40.018Z,91.40
2023-06-20T18:53:06.841Z,91.10
2023-06-20T18:55:33.560Z,91.00
2023-06-20T18:58:00.476Z,91.00
2023-06-20T19:00:27.414Z,92.70
2023-06-20T19:02:54.526Z,91.20
2023-06-20T19:05:21.340Z,94.30
2023-06-20T19:07:49.664Z,95.20
2023-06-20T19:10:16.576Z,91.60
2023-06-20T19:12:43.323Z,91.40
2023-06-20T19:15:10.562Z,91.30
2023-06-20T19:17:38.859Z,91.60
2023-06-20T19:20:07.848Z,91.40
2023-06-20T19:22:34.900Z,91.40
2023-06-20T19:25:02.102Z,91.20
2023-06-20T19:27:29.017Z,91.20
2023-06-20T19:29:55.730Z,92.40
2023-06-20T19:32:22.582Z,91.60
2023-06-20T19:34:50.275Z,91.40
2023-06-20T19:37:17.211Z,91.40
2023-06-20T19:39:44.048Z,91.40
2023-06-20T19:42:10.854Z,91.40
2023-06-20T19:44:37.558Z,91.70
2023-06-20T19:47:04.969Z,92.80
2023-06-20T19:49:31.762Z,91.80
2023-06-20T19:51:58.620Z,91.50
2023-06-20T19:54:25.380Z,91.40
2023-06-20T19:56:54.185Z,91.60
2023-06-20T19:59:21.345Z,92.30
2023-06-20T20:01:49.214Z,91.50
2023-06-20T20:04:16.035Z,92.40
2023-06-20T20:06:43.895Z,95.40
2023-06-20T20:09:10.691Z,92.60
2023-06-20T20:11:37.466Z,95.00
2023-06-20T20:14:04.234Z,94.70
2023-06-20T20:16:30.997Z,93.50
2023-06-20T20:18:57.778Z,95.20
2023-06-20T20:21:24.576Z,96.00
2023-06-20T20:23:51.384Z,94.50
2023-06-20T20:26:18.151Z,93.40
2023-06-20T20:28:46.084Z,93.70
2023-06-20T20:31:13.031Z,95.80
2023-06-20T20:33:39.881Z,95.50
2023-06-20T20:36:06.798Z,94.80
2023-06-20T20:38:33.654Z,94.30
2023-06-20T20:41:00.557Z,95.20
2023-06-20T20:43:27.304Z,98.20
2023-06-20T20:45:54.642Z,95.10
2023-06-20T20:48:23.121Z,96.00
2023-06-20T20:50:49.816Z,94.40
2023-06-20T20:53:16.640Z,97.90
2023-06-20T20:55:43.551Z,95.90
2023-06-20T20:58:10.446Z,95.30
2023-06-20T21:00:37.139Z,98.40
2023-06-20T21:03:06.264Z,96.70
2023-06-20T21:05:34.050Z,96.90
2023-06-20T21:08:01.129Z,96.70
2023-06-20T21:10:30.408Z,98.50
2023-06-20T21:12:57.204Z,96.00
2023-06-20T21:15:24.112Z,96.90
2023-06-20T21:17:51.090Z,96.50
2023-06-20T21:20:17.906Z,95.80
2023-06-20T21:22:44.881Z,95.70
2023-06-20T21:25:11.622Z,95.80
2023-06-20T21:27:38.347Z,95.80
2023-06-20T21:30:05.739Z,95.80
2023-06-20T21:32:32.492Z,95.60
2023-06-20T21:35:00.982Z,95.80
2023-06-20T21:37:29.369Z,95.50
2023-06-20T21:39:56.104Z,95.30
2023-06-20T21:42:22.854Z,95.40
2023-06-20T21:44:49.531Z,95.00
2023-06-20T21:47:16.394Z,96.10
2023-06-20T21:49:44.167Z,94.80
2023-06-20T21:52:10.871Z,95.10
2023-06-20T21:54:37.629Z,95.00
2023-06-20T21:57:04.718Z,94.80
2023-06-20T21:59:35.076Z,94.80
2023-06-20T22:02:02.866Z,95.30
2023-06-20T22:04:29.637Z,97.10
2023-06-20T22:06:56.350Z,97.40
2023-06-20T22:09:23.130Z,95.70
2023-06-20T22:11:50.084Z,96.50
2023-06-20T22:14:16.824Z,96.20
2023-06-20T22:16:43.585Z,96.80
2023-06-20T22:19:11.315Z,96.10
2023-06-20T22:21:38.143Z,95.70
2023-06-20T22:24:05.252Z,97.60
2023-06-20T22:26:32.001Z,97.50
2023-06-20T22:28:58.755Z,97.90
2023-06-20T22:31:25.664Z,96.40
2023-06-20T22:33:52.487Z,96.80
2023-06-20T22:36:20.006Z,95.40
2023-06-20T22:38:47.428Z,96.90
2023-06-20T22:41:14.395Z,96.00
2023-06-20T22:43:42.048Z,96.10
2023-06-20T22:46:09.503Z,95.20
2023-06-20T22:48:36.435Z,96.90
2023-06-20T22:51:03.829Z,95.90
2023-06-20T22:53:30.700Z,96.10
2023-06-20T22:55:57.539Z,96.90
2023-06-20T22:58:24.232Z,96.40
2023-06-20T23:00:51.008Z,96.60
2023-06-20T23:03:19.261Z,97.50
2023-06-20T23:05:46.185Z,96.10
2023-06-20T23:08:13.000Z,96.50
2023-06-20T23:10:39.862Z,97.30
2023-06-20T23:13:06.652Z,96.60
2023-06-20T23:15:33.403Z,97.50
2023-06-20T23:18:00.257Z,97.00
2023-06-20T23:20:27.267Z,97.90
2023-06-20T23:22:54.197Z,97.50
2023-06-20T23:25:21.034Z,97.80
2023-06-20T23:27:47.750Z,96.90
2023-06-20T23:30:14.612Z,97.50
2023-06-20T23:32:41.584Z,99.10
2023-06-20T23:35:09.180Z,98.40
2023-06-20T23:37:39.618Z,97.10
2023-06-20T23:40:13.470Z,96.90
2023-06-20T23:42:41.232Z,97.10
2023-06-20T23:45:09.167Z,97.90
2023-06-20T23:47:36.058Z,99.20
2023-06-20T23:50:02.905Z,98.70
2023-06-20T23:52:29.671Z,98.40
2023-06-20T23:54:56.841Z,98.40
2023-06-20T23:57:23.570Z,98.00
2023-06-20T23:59:51.558Z,99.70
